Time;durP1;ratioP1;P1;durP2;ratioP2;P2;SDS_P1;SDS_P2;PMS_P1;PMS_P2;Temp;Humidity;BMP_temperature;BMP_pressure;BME280_temperature;BME280_humidity;BME280_pressure;Samples;Min_cycle;Max_cycle;Signal;HPM_P1;HPM_P2
2023/05/23 00:01:01;;;;;;;2.57;2.37;;;;;;;20.50;58.35;97106.69;4898042;29;20618;-31
2023/05/23 00:03:30;;;;;;;2.67;2.47;;;;;;;20.48;58.21;97104.09;4901178;29;20211;-31
2023/05/23 00:05:57;;;;;;;2.63;2.43;;;;;;;20.49;58.48;97099.84;4904293;29;20214;-31
2023/05/23 00:08:24;;;;;;;2.90;2.70;;;;;;;20.50;58.47;97101.56;4896164;29;20222;-31
2023/05/23 00:10:51;;;;;;;2.50;2.30;;;;;;;20.50;58.36;97106.69;4898441;29;20854;-31
2023/05/23 00:13:17;;;;;;;2.43;2.27;;;;;;;20.50;58.53;97099.91;4898872;29;20226;-31
2023/05/23 00:15:44;;;;;;;2.67;2.47;;;;;;;20.51;58.38;97108.41;4905582;29;20213;-31
2023/05/23 00:18:10;;;;;;;2.67;2.47;;;;;;;20.48;58.66;97104.09;4900089;29;20261;-31
2023/05/23 00:20:41;;;;;;;2.50;2.30;;;;;;;20.49;58.66;97092.19;4907626;29;20680;-31
2023/05/23 00:23:08;;;;;;;2.50;2.30;;;;;;;20.50;58.53;97107.56;4895696;29;20226;-31
2023/05/23 00:25:35;;;;;;;2.80;2.60;;;;;;;20.50;58.31;97110.09;4900598;29;20210;-31
2023/05/23 00:28:02;;;;;;;2.90;2.70;;;;;;;20.49;58.50;97102.41;4897949;29;20701;-31
2023/05/23 00:30:29;;;;;;;2.60;2.40;;;;;;;20.48;58.32;97106.63;4903242;29;20287;-31
2023/05/23 00:32:56;;;;;;;3.13;2.83;;;;;;;20.50;58.59;97102.44;4895972;29;20253;-32
2023/05/23 00:35:23;;;;;;;2.50;2.30;;;;;;;20.51;58.57;97104.16;4895991;29;20214;-31
2023/05/23 00:37:50;;;;;;;2.60;2.40;;;;;;;20.50;58.62;97102.44;4896165;29;20234;-31
2023/05/23 00:40:17;;;;;;;2.43;2.23;;;;;;;20.50;58.41;97107.56;4899058;29;20289;-32
2023/05/23 00:42:44;;;;;;;2.60;2.40;;;;;;;20.52;58.28;97105.03;4899745;29;20226;-31
2023/05/23 00:45:13;;;;;;;3.37;2.60;;;;;;;20.50;58.51;97109.22;4898608;29;20279;-30
2023/05/23 00:47:40;;;;;;;2.73;2.53;;;;;;;20.50;58.57;97117.75;4893306;29;20273;-32
2023/05/23 00:50:07;;;;;;;2.47;2.27;;;;;;;20.50;58.50;97120.31;4894097;29;20210;-32
2023/05/23 00:52:34;;;;;;;2.63;2.43;;;;;;;20.51;58.55;97110.94;4892651;29;20262;-31
2023/05/23 00:55:01;;;;;;;2.70;2.50;;;;;;;20.48;58.38;97114.28;4896877;29;20638;-31
2023/05/23 00:57:27;;;;;;;2.20;2.10;;;;;;;20.50;58.44;97119.44;4894227;29;20230;-31
2023/05/23 00:59:54;;;;;;;2.90;2.70;;;;;;;20.50;58.53;97124.53;4903207;29;20689;-32
2023/05/23 01:02:21;;;;;;;2.47;2.27;;;;;;;20.50;58.46;97125.41;4881285;29;20226;-31
2023/05/23 01:04:53;;;;;;;2.20;2.10;;;;;;;20.51;58.48;97124.59;4893611;29;20230;-31
2023/05/23 01:07:20;;;;;;;2.70;2.50;;;;;;;20.51;58.44;97129.69;4894224;29;20226;-31
2023/05/23 01:09:46;;;;;;;2.63;2.43;;;;;;;20.52;58.47;97125.47;4904578;29;20206;-31
2023/05/23 01:12:20;;;;;;;2.63;2.43;;;;;;;20.51;58.53;97129.69;4895039;29;20218;-30
2023/05/23 01:15:07;;;;;;;2.20;2.10;;;;;;;20.51;58.51;97133.91;4872287;29;20211;-31
2023/05/23 01:17:43;;;;;;;2.70;2.50;;;;;;;20.50;58.33;97133.06;4895157;29;20416;-30
2023/05/23 01:20:11;;;;;;;2.60;2.40;;;;;;;20.50;58.48;97139.88;4888773;29;20206;-30
2023/05/23 01:22:59;;;;;;;2.70;2.37;;;;;;;20.49;58.71;97141.53;4888951;29;20223;-31
2023/05/23 01:26:07;;;;;;;2.77;2.57;;;;;;;20.49;58.73;97133.88;4887858;29;20627;-31
2023/05/23 01:28:40;;;;;;;2.67;2.47;;;;;;;20.47;58.47;97130.44;4889144;29;20639;-31
2023/05/23 01:31:07;;;;;;;2.27;2.17;;;;;;;20.49;58.53;97145.81;4882940;29;20259;-31
2023/05/23 01:33:33;;;;;;;2.60;2.40;;;;;;;20.48;58.87;97134.72;4898359;29;20265;-31
2023/05/23 01:36:02;;;;;;;2.47;2.27;;;;;;;20.48;58.31;97138.94;4888770;29;20202;-31
2023/05/23 01:38:29;;;;;;;2.33;2.23;;;;;;;20.50;58.51;97134.75;4898998;29;20195;-31
2023/05/23 01:40:55;;;;;;;2.47;2.27;;;;;;;20.49;58.73;97133.88;4892420;29;20207;-31
2023/05/23 01:43:22;;;;;;;2.17;2.07;;;;;;;20.50;58.57;97129.66;4896289;29;20725;-30
2023/05/23 01:45:48;;;;;;;2.30;2.20;;;;;;;20.49;58.54;97133.03;4905061;29;20661;-31
2023/05/23 01:48:15;;;;;;;2.40;2.20;;;;;;;20.49;58.27;97128.78;4909603;29;20222;-31
2023/05/23 01:50:44;;;;;;;2.57;2.37;;;;;;;20.50;58.39;97133.06;4898805;29;20341;-31
2023/05/23 01:53:11;;;;;;;2.50;2.30;;;;;;;20.47;58.59;97130.44;4902391;29;20285;-31
2023/05/23 01:55:39;;;;;;;2.80;2.60;;;;;;;20.51;58.55;97133.91;4890324;29;20256;-31
2023/05/23 01:58:06;;;;;;;2.47;2.27;;;;;;;20.47;58.39;97127.88;4897556;29;20658;-30
2023/05/23 02:00:32;;;;;;;1.90;1.80;;;;;;;20.50;58.65;97138.19;4875962;29;20286;-31
2023/05/23 02:02:59;;;;;;;2.50;2.30;;;;;;;20.48;58.58;97129.59;4896258;29;20254;-31
2023/05/23 02:05:26;;;;;;;2.63;2.43;;;;;;;20.49;58.29;97130.47;4898061;29;20198;-30
2023/05/23 02:07:52;;;;;;;2.40;2.20;;;;;;;20.44;58.51;97124.38;4900937;29;20230;-31
2023/05/23 02:10:19;;;;;;;2.67;2.47;;;;;;;20.50;58.52;97129.66;4904288;29;20250;-31
2023/05/23 02:12:46;;;;;;;2.70;2.50;;;;;;;20.50;58.55;97130.53;4898276;29;20230;-31
2023/05/23 02:15:13;;;;;;;2.47;2.27;;;;;;;20.50;58.45;97127.97;4906192;29;20701;-32
2023/05/23 02:17:40;;;;;;;2.90;2.70;;;;;;;20.51;58.44;97128.81;4897731;29;20262;-31
2023/05/23 02:20:07;;;;;;;3.00;2.60;;;;;;;20.49;58.54;97135.59;4898274;29;20203;-31
2023/05/23 02:22:34;;;;;;;2.53;2.37;;;;;;;20.52;58.60;97135.66;4906084;29;20260;-31
2023/05/23 02:25:01;;;;;;;2.60;2.40;;;;;;;20.51;58.50;97142.44;4898281;29;20206;-31
2023/05/23 02:27:27;;;;;;;2.63;2.43;;;;;;;20.51;58.59;97151.78;4903535;29;20281;-31
2023/05/23 02:29:54;;;;;;;2.70;2.50;;;;;;;20.49;58.87;97144.09;4910621;29;20237;-31
2023/05/23 02:32:21;;;;;;;2.80;2.60;;;;;;;20.50;58.84;97150.06;4902860;29;20221;-31
2023/05/23 02:34:49;;;;;;;2.60;2.40;;;;;;;20.49;59.05;97146.66;4903211;29;20206;-31
2023/05/23 02:37:15;;;;;;;2.50;2.30;;;;;;;20.50;58.88;97148.41;4897329;29;20213;-31
2023/05/23 02:39:42;;;;;;;2.83;2.63;;;;;;;20.49;58.78;97156.84;4897843;29;20210;-32
2023/05/23 02:42:09;;;;;;;2.20;2.10;;;;;;;20.50;58.61;97157.72;4896544;29;20277;-31
2023/05/23 02:44:35;;;;;;;2.30;2.20;;;;;;;20.50;58.51;97155.19;4895389;29;20213;-31
2023/05/23 02:47:02;;;;;;;2.50;2.30;;;;;;;20.51;58.62;97154.34;4905765;29;20209;-30
2023/05/23 02:49:29;;;;;;;2.70;2.50;;;;;;;20.51;58.42;97149.22;4903204;29;20218;-31
2023/05/23 02:51:55;;;;;;;2.57;2.37;;;;;;;20.51;58.25;97149.22;4906132;29;20237;-31
2023/05/23 02:54:22;;;;;;;2.50;2.30;;;;;;;20.50;58.20;97143.28;4895927;29;20205;-31
2023/05/23 02:56:51;;;;;;;2.60;2.40;;;;;;;20.50;58.62;97148.41;4897482;29;20210;-31
2023/05/23 02:59:17;;;;;;;2.80;2.60;;;;;;;20.42;58.83;97134.53;4905233;29;20199;-31
2023/05/23 03:01:44;;;;;;;2.40;2.30;;;;;;;20.51;58.65;97144.13;4897680;29;20230;-31
2023/05/23 03:04:12;;;;;;;2.50;2.30;;;;;;;20.44;58.51;97135.47;4905156;29;20210;-31
2023/05/23 03:06:40;;;;;;;2.80;2.60;;;;;;;20.50;58.41;97150.94;4903571;29;20210;-30
2023/05/23 03:09:08;;;;;;;2.27;2.17;;;;;;;20.51;58.79;97149.22;4897265;29;20229;-32
2023/05/23 03:11:35;;;;;;;2.40;2.20;;;;;;;20.50;58.77;97148.41;4904239;29;20258;-31
2023/05/23 03:14:02;;;;;;;2.50;2.30;;;;;;;20.49;58.59;97140.69;4905327;29;20700;-32
2023/05/23 03:16:28;;;;;;;2.50;2.30;;;;;;;20.49;58.90;97148.34;4897120;29;20201;-30
2023/05/23 03:18:55;;;;;;;2.40;2.30;;;;;;;20.49;58.64;97149.19;4908126;29;20205;-31
2023/05/23 03:21:22;;;;;;;2.17;2.07;;;;;;;20.49;58.72;97148.34;4898711;29;20230;-30
2023/05/23 03:23:49;;;;;;;2.73;2.53;;;;;;;20.46;58.48;97144.00;4897271;29;20630;-31
2023/05/23 03:26:16;;;;;;;2.50;2.30;;;;;;;20.49;58.73;97150.91;4897119;29;20230;-31
2023/05/23 03:28:42;;;;;;;2.40;2.20;;;;;;;20.50;58.71;97158.59;4911822;29;20779;-31
2023/05/23 03:31:09;;;;;;;2.23;2.13;;;;;;;20.47;58.82;97144.88;4905726;29;20633;-31
2023/05/23 03:33:35;;;;;;;2.73;2.53;;;;;;;20.49;58.73;97151.75;4896983;29;20674;-31
2023/05/23 03:36:06;;;;;;;2.57;2.37;;;;;;;20.50;58.56;97160.28;4901433;29;20296;-31
2023/05/23 03:38:32;;;;;;;2.53;2.33;;;;;;;20.51;58.27;97167.97;4896978;29;20234;-31
2023/05/23 03:40:59;;;;;;;2.30;2.20;;;;;;;20.50;58.57;97163.72;4897289;29;20651;-31
2023/05/23 03:43:25;;;;;;;2.20;2.10;;;;;;;20.49;58.61;97159.41;4904739;29;20241;-31
2023/05/23 03:45:52;;;;;;;2.53;2.33;;;;;;;20.50;58.19;97158.59;4904660;29;20202;-30
2023/05/23 03:48:19;;;;;;;2.20;2.10;;;;;;;20.50;58.72;97161.16;4896582;29;20218;-31
2023/05/23 03:50:46;;;;;;;2.50;2.30;;;;;;;20.50;58.27;97166.25;4905480;29;20206;-31
2023/05/23 03:53:12;;;;;;;2.50;2.30;;;;;;;20.50;58.51;97163.72;4896497;29;20339;-31
2023/05/23 03:55:39;;;;;;;2.60;2.40;;;;;;;20.51;58.35;97160.31;4896605;29;20209;-31
2023/05/23 03:58:06;;;;;;;2.50;2.30;;;;;;;20.51;58.39;97170.53;4896709;29;20401;-31
2023/05/23 04:00:32;;;;;;;2.50;2.30;;;;;;;20.51;58.51;97167.09;4893201;29;20284;-31
2023/05/23 04:02:59;;;;;;;2.33;2.23;;;;;;;20.49;58.69;97167.06;4903875;29;20227;-31
2023/05/23 04:05:26;;;;;;;2.63;2.43;;;;;;;20.51;58.72;97162.00;4896712;29;20654;-31
2023/05/23 04:07:52;;;;;;;2.67;2.47;;;;;;;20.50;58.83;97161.16;4903776;29;20316;-32
2023/05/23 04:10:19;;;;;;;2.30;2.17;;;;;;;20.51;58.57;97159.44;4896516;29;20670;-31
2023/05/23 04:12:46;;;;;;;2.60;2.40;;;;;;;20.50;58.79;97161.16;4896581;29;20265;-31
2023/05/23 04:15:13;;;;;;;2.60;2.40;;;;;;;20.52;58.76;97154.38;4896738;29;20198;-31
2023/05/23 04:17:39;;;;;;;2.40;2.20;;;;;;;20.51;58.29;97162.00;4896789;29;20644;-30
2023/05/23 04:20:08;;;;;;;2.30;2.20;;;;;;;20.51;58.57;97159.44;4903522;29;20207;-31
2023/05/23 04:22:35;;;;;;;2.50;2.30;;;;;;;20.38;58.76;97142.94;4896453;29;20228;-31
2023/05/23 04:25:01;;;;;;;2.60;2.40;;;;;;;20.50;58.71;97168.81;4904134;29;20285;-31
2023/05/23 04:27:28;;;;;;;2.20;2.10;;;;;;;20.51;58.53;97177.31;4896253;29;20254;-31
2023/05/23 04:29:57;;;;;;;2.30;2.20;;;;;;;20.51;59.24;97180.75;4904142;29;20230;-31
2023/05/23 04:32:24;;;;;;;2.70;2.50;;;;;;;20.52;58.60;97181.63;4903407;29;20252;-31
2023/05/23 04:34:51;;;;;;;2.40;2.30;;;;;;;20.52;58.72;97181.63;4901942;29;20212;-31
2023/05/23 04:37:20;;;;;;;2.80;2.60;;;;;;;20.52;58.75;97192.69;4899817;29;20254;-32
2023/05/23 04:39:47;;;;;;;2.57;2.37;;;;;;;20.52;59.05;97190.13;4890822;29;20799;-31
2023/05/23 04:42:14;;;;;;;2.60;2.40;;;;;;;20.52;58.57;97197.78;4904115;29;20263;-31
2023/05/23 04:44:41;;;;;;;2.43;2.23;;;;;;;20.51;58.65;97203.72;4896555;29;20587;-31
2023/05/23 04:47:08;;;;;;;2.60;2.40;;;;;;;20.52;58.70;97207.16;4898183;29;20202;-31
2023/05/23 04:49:36;;;;;;;2.63;2.43;;;;;;;20.52;58.62;97202.88;4909548;29;20264;-31
2023/05/23 04:52:02;;;;;;;2.53;2.33;;;;;;;20.51;58.89;97203.72;4898069;29;20511;-31
2023/05/23 04:54:30;;;;;;;2.37;2.27;;;;;;;20.50;58.77;97204.56;4898470;29;20207;-31
2023/05/23 04:56:56;;;;;;;2.80;2.60;;;;;;;20.50;58.72;97209.66;4902699;29;20240;-31
2023/05/23 04:59:23;;;;;;;2.60;2.40;;;;;;;20.51;59.25;97205.41;4899994;29;20241;-31
2023/05/23 05:01:50;;;;;;;2.60;2.40;;;;;;;20.51;58.36;97210.50;4902271;29;20230;-31
2023/05/23 05:04:16;;;;;;;2.60;2.40;;;;;;;20.50;58.34;97213.88;4899488;29;20231;-31
2023/05/23 05:06:43;;;;;;;2.57;2.37;;;;;;;20.51;58.16;97220.72;4899811;29;20670;-31
2023/05/23 05:09:10;;;;;;;2.67;2.47;;;;;;;20.51;58.70;97215.59;4901383;29;20214;-31
2023/05/23 05:11:36;;;;;;;2.70;2.50;;;;;;;20.52;58.75;97230.13;4905344;29;20259;-31
2023/05/23 05:14:03;;;;;;;2.80;2.60;;;;;;;20.52;58.81;97214.81;4901639;29;20238;-31
2023/05/23 05:16:29;;;;;;;2.60;2.40;;;;;;;20.53;58.95;97213.97;4910577;29;20205;-31
2023/05/23 05:18:56;;;;;;;2.50;2.30;;;;;;;20.50;58.27;97208.78;4903566;29;20582;-31
2023/05/23 05:21:23;;;;;;;2.60;2.40;;;;;;;20.53;58.54;97214.84;4906736;29;20305;-31
2023/05/23 05:23:50;;;;;;;2.60;2.40;;;;;;;20.53;58.38;97219.97;4908973;29;20697;-31
2023/05/23 05:26:17;;;;;;;2.37;2.27;;;;;;;20.53;58.58;97221.63;4909014;29;20205;-31
2023/05/23 05:28:43;;;;;;;2.60;2.40;;;;;;;20.52;58.56;97227.56;4898554;29;20282;-31
2023/05/23 05:31:14;;;;;;;2.37;2.27;;;;;;;20.53;58.76;97231.84;4899185;29;20210;-31
2023/05/23 05:33:44;;;;;;;2.70;2.50;;;;;;;20.53;58.44;97234.41;4894416;29;20258;-30
2023/05/23 05:36:11;;;;;;;2.73;2.53;;;;;;;20.53;58.26;97237.81;4897884;29;20229;-31
2023/05/23 05:38:38;;;;;;;2.43;2.33;;;;;;;20.53;58.21;97240.38;4899315;29;20250;-31
2023/05/23 05:41:04;;;;;;;2.57;2.37;;;;;;;20.54;58.68;97243.81;4912789;29;20685;-30
2023/05/23 05:43:34;;;;;;;2.63;2.43;;;;;;;20.53;58.86;97237.81;4899303;29;20210;-31
2023/05/23 05:46:01;;;;;;;2.63;2.43;;;;;;;20.53;58.81;97247.16;4899436;29;20214;-31
2023/05/23 05:48:28;;;;;;;2.60;2.40;;;;;;;20.52;58.34;97243.72;4898023;29;20318;-31
2023/05/23 05:50:54;;;;;;;2.23;2.13;;;;;;;20.53;58.65;97248.03;4913023;29;20209;-29
2023/05/23 05:53:21;;;;;;;2.67;2.47;;;;;;;20.53;58.82;97245.47;4903270;29;20230;-31
2023/05/23 05:55:48;;;;;;;2.57;2.37;;;;;;;20.54;58.63;97241.25;4906335;29;20210;-31
2023/05/23 05:58:14;;;;;;;2.50;2.33;;;;;;;20.54;58.78;97239.53;4903730;29;20748;-31
2023/05/23 06:00:41;;;;;;;2.67;2.47;;;;;;;20.52;58.67;97230.97;4907354;29;20202;-31
2023/05/23 06:03:08;;;;;;;2.57;2.37;;;;;;;20.54;58.65;97237.00;4905253;29;20610;-31
2023/05/23 06:05:36;;;;;;;2.47;2.27;;;;;;;20.52;58.33;97243.72;4905378;29;20274;-30
2023/05/23 06:08:03;;;;;;;2.50;2.30;;;;;;;20.54;58.33;97249.75;4906158;29;20216;-31
2023/05/23 06:10:30;;;;;;;2.60;2.40;;;;;;;20.55;58.51;97250.63;4901114;29;20226;-31
2023/05/23 06:12:57;;;;;;;2.40;2.20;;;;;;;20.52;58.58;97248.00;4896825;29;20226;-31
2023/05/23 06:15:24;;;;;;;2.70;2.50;;;;;;;20.53;58.58;97252.25;4902935;29;20257;-31
2023/05/23 06:17:51;;;;;;;2.70;2.50;;;;;;;20.53;58.63;97258.25;4888482;29;20207;-31
2023/05/23 06:20:18;;;;;;;2.33;2.23;;;;;;;20.55;58.77;97263.41;4896535;29;20297;-31
2023/05/23 06:22:44;;;;;;;2.20;2.10;;;;;;;20.55;58.80;97256.63;4898770;29;20689;-31
2023/05/23 06:25:11;;;;;;;2.80;2.60;;;;;;;20.55;58.37;97265.94;4901051;29;20228;-31
2023/05/23 06:27:38;;;;;;;2.60;2.40;;;;;;;20.55;58.55;97266.81;4903386;29;20206;-31
2023/05/23 06:30:05;;;;;;;2.20;2.10;;;;;;;20.55;58.54;97271.94;4899863;29;20226;-31
2023/05/23 06:32:32;;;;;;;2.43;2.23;;;;;;;20.55;58.61;97268.50;4900660;29;20234;-31
2023/05/23 06:34:58;;;;;;;2.47;2.27;;;;;;;20.56;58.17;97275.34;4906104;29;20281;-31
2023/05/23 06:37:25;;;;;;;2.37;2.17;;;;;;;20.54;58.42;97267.63;4890261;29;20199;-31
2023/05/23 06:39:51;;;;;;;2.57;2.37;;;;;;;20.55;58.86;97271.06;4903518;29;20198;-31
2023/05/23 06:42:18;;;;;;;2.50;2.30;;;;;;;20.55;58.58;97268.50;4911533;29;20282;-31
2023/05/23 06:44:45;;;;;;;2.30;2.10;;;;;;;20.54;57.97;97282.09;4904291;29;20210;-31
2023/05/23 06:47:11;;;;;;;2.70;2.50;;;;;;;20.50;58.30;97270.06;4905639;29;20199;-30
2023/05/23 06:49:38;;;;;;;2.50;2.30;;;;;;;20.55;58.55;97276.16;4897745;29;20278;-31
2023/05/23 06:52:04;;;;;;;2.50;2.30;;;;;;;20.54;58.79;97274.44;4905426;29;20233;-31
2023/05/23 06:54:31;;;;;;;2.33;2.23;;;;;;;20.55;58.64;97278.72;4897776;29;20264;-30
2023/05/23 06:56:57;;;;;;;2.30;2.20;;;;;;;20.55;58.26;97273.63;4897905;29;20587;-31
2023/05/23 06:59:24;;;;;;;2.20;2.10;;;;;;;20.55;58.45;97281.28;4897585;29;20685;-31
2023/05/23 07:01:51;;;;;;;2.60;2.40;;;;;;;20.55;58.47;97277.03;4897903;29;20233;-31
2023/05/23 07:04:17;;;;;;;2.27;2.17;;;;;;;20.55;58.33;97277.03;4897578;29;20199;-31
2023/05/23 07:06:44;;;;;;;2.33;2.23;;;;;;;20.56;58.03;97290.66;4903573;29;20202;-31
2023/05/23 07:09:11;;;;;;;2.60;2.40;;;;;;;20.55;58.54;97282.16;4895356;29;20650;-31
2023/05/23 07:11:39;;;;;;;2.23;2.10;;;;;;;20.55;58.34;97284.69;4902554;29;20273;-31
2023/05/23 07:14:06;;;;;;;2.27;2.17;;;;;;;20.55;59.03;97296.59;4913117;29;20199;-31
2023/05/23 07:16:33;;;;;;;2.50;2.30;;;;;;;20.54;58.47;97295.72;4901569;29;20269;-30
2023/05/23 07:19:00;;;;;;;2.10;2.00;;;;;;;20.56;58.37;97298.31;4900528;29;20206;-31
2023/05/23 07:21:27;;;;;;;2.50;2.30;;;;;;;20.54;58.70;97293.16;4889471;29;20248;-31
2023/05/23 07:23:53;;;;;;;2.33;2.20;;;;;;;20.55;58.50;97289.81;4890675;29;20313;-31
2023/05/23 07:26:20;;;;;;;2.30;2.10;;;;;;;20.55;58.84;97296.59;4896036;29;20206;-31
2023/05/23 07:28:46;;;;;;;2.20;2.10;;;;;;;20.53;58.28;97286.34;4903266;29;20213;-31
2023/05/23 07:31:13;;;;;;;2.40;2.30;;;;;;;20.54;58.59;97293.16;4909557;29;20205;-31
2023/05/23 07:33:40;;;;;;;2.40;2.20;;;;;;;20.55;58.31;97291.47;4895859;29;20636;-31
2023/05/23 07:36:07;;;;;;;2.67;2.47;;;;;;;20.54;58.53;97292.31;4905584;29;20214;-31
2023/05/23 07:38:34;;;;;;;2.00;1.90;;;;;;;20.55;58.43;97292.34;4898410;29;20680;-31
2023/05/23 07:41:00;;;;;;;2.60;2.40;;;;;;;20.55;58.86;97294.03;4897028;29;20199;-31
2023/05/23 07:43:37;;;;;;;2.70;2.50;;;;;;;20.55;58.45;97294.03;4904908;29;20233;-31
2023/05/23 07:46:04;;;;;;;2.30;2.20;;;;;;;20.55;58.32;97302.56;4896825;29;20210;-32
2023/05/23 07:48:31;;;;;;;2.13;2.00;;;;;;;20.55;58.83;97300.03;4900132;29;20261;-31
2023/05/23 07:50:57;;;;;;;2.33;2.23;;;;;;;20.55;58.20;97300.03;4904119;29;20221;-31
2023/05/23 07:53:24;;;;;;;2.40;2.20;;;;;;;20.55;58.12;97305.13;4896884;29;20218;-31
2023/05/23 07:55:51;;;;;;;2.50;2.30;;;;;;;20.56;58.56;97305.97;4910805;29;20301;-30
2023/05/23 07:58:18;;;;;;;2.60;2.40;;;;;;;20.56;58.49;97300.88;4905714;29;20206;-31
2023/05/23 08:00:45;;;;;;;2.20;2.10;;;;;;;20.55;58.46;97305.13;4904788;29;20202;-31
2023/05/23 08:03:12;;;;;;;2.37;2.20;;;;;;;20.57;58.90;97302.63;4896610;29;20264;-31
2023/05/23 08:05:38;;;;;;;2.57;2.37;;;;;;;20.56;58.04;97301.75;4896554;29;20292;-31
2023/05/23 08:08:05;;;;;;;2.60;2.40;;;;;;;20.56;58.72;97305.97;4904431;29;20787;-31
2023/05/23 08:10:32;;;;;;;2.60;2.40;;;;;;;20.53;58.24;97298.22;4904285;29;20242;-31
2023/05/23 08:12:59;;;;;;;2.30;2.20;;;;;;;20.56;58.29;97301.75;4896530;29;20656;-31
2023/05/23 08:15:27;;;;;;;2.47;2.27;;;;;;;20.57;58.24;97305.16;4896199;29;20206;-31
2023/05/23 08:17:55;;;;;;;2.40;2.30;;;;;;;20.57;58.37;97294.97;4896469;29;20341;-31
2023/05/23 08:20:29;;;;;;;2.57;2.40;;;;;;;20.56;57.94;97299.19;4910195;29;20209;-31
2023/05/23 08:22:59;;;;;;;2.40;2.30;;;;;;;20.56;58.32;97298.31;4892285;29;20668;-31
2023/05/23 08:25:29;;;;;;;2.50;2.30;;;;;;;20.54;58.35;97298.25;4903009;29;20258;-31
2023/05/23 08:27:59;;;;;;;2.40;2.23;;;;;;;20.55;58.39;97307.69;4901742;29;20242;-31
2023/05/23 08:30:26;;;;;;;2.37;2.20;;;;;;;20.55;58.33;97301.69;4896396;29;20282;-31
2023/05/23 08:32:56;;;;;;;2.33;2.13;;;;;;;20.52;58.38;97301.59;4902872;29;20251;-31
2023/05/23 08:35:23;;;;;;;2.37;2.17;;;;;;;20.55;58.99;97305.13;4895796;29;20234;-32
2023/05/23 08:37:50;;;;;;;2.00;1.90;;;;;;;20.55;58.65;97309.34;4900219;29;20262;-31
2023/05/23 08:40:19;;;;;;;2.50;2.30;;;;;;;20.55;58.56;97312.78;4901477;29;20288;-31
2023/05/23 08:42:47;;;;;;;2.40;2.30;;;;;;;20.55;58.20;97317.00;4906035;29;20598;-31
2023/05/23 08:45:15;;;;;;;2.10;2.00;;;;;;;20.56;58.34;97323.84;4900298;29;20202;-31
2023/05/23 08:47:43;;;;;;;2.40;2.20;;;;;;;20.57;58.33;97315.38;4902107;29;20206;-34
2023/05/23 08:50:16;;;;;;;2.50;2.30;;;;;;;20.57;58.24;97326.44;4906902;29;20231;-31
2023/05/23 08:52:57;;;;;;;2.20;2.10;;;;;;;20.55;58.34;97324.66;4898766;29;20234;-31
2023/05/23 08:55:26;;;;;;;2.13;2.03;;;;;;;20.56;58.41;97322.16;4907022;29;20217;-31
2023/05/23 08:57:53;;;;;;;2.10;2.00;;;;;;;20.57;58.40;97323.03;4905847;29;20209;-31
2023/05/23 09:00:21;;;;;;;2.20;2.10;;;;;;;20.57;58.33;97325.59;4901353;29;20729;-31
2023/05/23 09:02:48;;;;;;;2.60;2.40;;;;;;;20.57;58.90;97328.16;4899626;29;20232;-31
2023/05/23 09:05:14;;;;;;;2.30;2.20;;;;;;;20.57;58.39;97323.03;4907366;29;20261;-31
2023/05/23 09:07:43;;;;;;;2.27;2.17;;;;;;;20.57;58.45;97333.25;4904457;29;20206;-31
2023/05/23 09:10:11;;;;;;;2.10;2.00;;;;;;;20.57;58.05;97331.53;4910265;29;20230;-31
2023/05/23 09:12:37;;;;;;;2.50;2.30;;;;;;;20.57;58.50;97330.69;4905700;29;20230;-31
2023/05/23 09:15:05;;;;;;;2.03;1.93;;;;;;;20.56;58.38;97332.38;4899719;29;20297;-31
2023/05/23 09:17:35;;;;;;;2.20;2.10;;;;;;;20.58;58.36;97329.88;4900608;29;20234;-31
2023/05/23 09:20:04;;;;;;;1.97;1.87;;;;;;;20.58;58.23;97325.63;4908915;29;20210;-31
2023/05/23 09:22:30;;;;;;;2.30;2.10;;;;;;;20.57;58.12;97329.00;4907186;29;20222;-31
2023/05/23 09:24:57;;;;;;;2.20;2.10;;;;;;;20.58;58.81;97329.88;4904045;29;20206;-31
2023/05/23 09:27:24;;;;;;;2.30;2.20;;;;;;;20.58;58.65;97340.97;4906848;29;20210;-31
2023/05/23 09:29:50;;;;;;;2.43;2.27;;;;;;;20.59;58.42;97339.25;4905828;29;20589;-31
2023/05/23 09:32:17;;;;;;;2.50;2.30;;;;;;;20.59;58.34;97336.69;4900506;29;20230;-30
2023/05/23 09:34:55;;;;;;;2.20;2.10;;;;;;;20.57;58.30;97334.09;4903893;29;20274;-31
2023/05/23 09:37:24;;;;;;;2.10;2.00;;;;;;;20.58;58.47;97335.84;4892831;29;20693;-31
2023/05/23 09:39:51;;;;;;;2.20;2.10;;;;;;;20.59;57.86;97339.25;4910110;29;20197;-31
2023/05/23 09:42:21;;;;;;;2.33;2.13;;;;;;;20.58;58.56;97343.50;4898271;29;20632;-31
2023/05/23 09:44:49;;;;;;;2.13;2.03;;;;;;;20.56;58.54;97339.16;4904263;29;20289;-31
2023/05/23 09:47:15;;;;;;;2.20;2.10;;;;;;;20.58;58.34;97348.63;4892147;29;20259;-31
2023/05/23 09:49:43;;;;;;;2.40;2.20;;;;;;;20.58;58.34;97350.28;4910016;29;20308;-31
2023/05/23 09:52:10;;;;;;;1.90;1.80;;;;;;;20.58;58.35;97345.19;4907807;29;20226;-31
2023/05/23 09:54:37;;;;;;;2.20;2.10;;;;;;;20.54;58.52;97343.38;4891628;29;20658;-31
2023/05/23 09:57:04;;;;;;;2.10;2.00;;;;;;;20.56;58.13;97340.03;4898870;29;20213;-31
2023/05/23 09:59:31;;;;;;;2.07;1.97;;;;;;;20.59;58.42;97349.47;4883055;29;20246;-31
2023/05/23 10:01:58;;;;;;;2.70;2.50;;;;;;;20.59;58.29;97346.91;4902763;29;20236;-31
2023/05/23 10:04:24;;;;;;;2.47;2.27;;;;;;;20.56;58.57;97347.69;4911038;29;20587;-31
2023/05/23 10:07:00;;;;;;;2.20;2.07;;;;;;;20.58;58.49;97346.06;4888175;29;20210;-31
2023/05/23 10:09:27;;;;;;;2.30;2.20;;;;;;;20.59;58.19;97354.56;4897245;29;20297;-31
2023/05/23 10:12:15;;;;;;;2.10;2.00;;;;;;;20.58;58.58;97348.63;4897341;29;20222;-31
2023/05/23 10:14:43;;;;;;;2.10;2.00;;;;;;;20.58;58.56;97350.28;4892125;29;20209;-31
2023/05/23 10:17:18;;;;;;;2.33;2.13;;;;;;;20.57;58.46;97351.97;4885246;29;20721;-31
2023/05/23 10:19:47;;;;;;;2.03;1.93;;;;;;;20.57;58.08;97351.13;4897155;29;20696;-31
2023/05/23 10:22:15;;;;;;;2.10;2.00;;;;;;;20.57;58.67;97344.31;4898293;29;20233;-31
2023/05/23 10:24:43;;;;;;;2.00;1.90;;;;;;;20.57;58.27;97354.53;4891525;29;20261;-31
2023/05/23 10:27:10;;;;;;;2.53;2.20;;;;;;;20.57;58.44;97344.31;4904949;29;20626;-31
2023/05/23 10:29:36;;;;;;;2.27;2.17;;;;;;;20.58;58.09;97352.84;4896940;29;20258;-32
2023/05/23 10:32:03;;;;;;;2.03;1.93;;;;;;;20.58;58.37;97345.19;4897189;29;20715;-29
2023/05/23 10:35:00;;;;;;;2.37;2.17;;;;;;;20.59;58.24;97357.13;4895724;29;20210;-31
2023/05/23 10:38:02;;;;;;;2.10;2.00;;;;;;;20.58;58.19;97350.28;4898497;29;20202;-31
2023/05/23 10:40:53;;;;;;;2.00;1.90;;;;;;;20.58;58.05;97352.84;4876322;29;20210;-31
2023/05/23 10:43:30;;;;;;;2.07;1.97;;;;;;;20.57;58.40;97346.88;4897559;29;20233;-31
2023/05/23 10:45:57;;;;;;;2.43;2.33;;;;;;;20.58;58.29;97343.50;4881839;29;20254;-31
2023/05/23 10:48:30;;;;;;;2.43;2.23;;;;;;;20.58;58.40;97351.16;4906722;29;20212;-31
2023/05/23 10:51:07;;;;;;;2.20;2.10;;;;;;;20.56;58.34;97344.25;4909051;29;20225;-31
2023/05/23 10:53:38;;;;;;;2.17;2.07;;;;;;;20.58;58.25;97343.50;4896472;29;20214;-31
2023/05/23 10:56:06;;;;;;;2.30;2.10;;;;;;;20.57;58.44;97344.31;4893405;29;20846;-31
2023/05/23 10:58:33;;;;;;;2.13;2.03;;;;;;;20.58;58.38;97337.53;4896992;29;20203;-31
2023/05/23 11:01:12;;;;;;;2.10;2.00;;;;;;;20.57;58.28;97328.16;4896814;29;20214;-32
2023/05/23 11:03:44;;;;;;;2.27;2.10;;;;;;;20.58;58.12;97333.31;4904407;29;20205;-30
2023/05/23 11:06:43;;;;;;;2.33;2.17;;;;;;;20.57;58.58;97331.53;4897732;29;20289;-31
2023/05/23 11:09:11;;;;;;;2.27;2.17;;;;;;;20.57;58.38;97328.16;4874642;29;20210;-31
2023/05/23 11:12:05;;;;;;;2.20;2.10;;;;;;;20.58;58.52;97333.31;4897360;29;20241;-31
2023/05/23 11:14:50;;;;;;;2.27;2.10;;;;;;;20.57;58.33;97326.44;4900593;29;20218;-31
2023/05/23 11:17:30;;;;;;;1.90;1.80;;;;;;;20.53;58.29;97318.63;4901110;29;20688;-31
2023/05/23 11:20:08;;;;;;;2.00;1.90;;;;;;;20.58;58.22;97329.88;4897368;29;20229;-31
2023/05/23 11:22:35;;;;;;;2.30;2.20;;;;;;;20.58;58.34;97329.88;4896336;29;20653;-31
2023/05/23 11:25:08;;;;;;;1.90;1.80;;;;;;;20.57;58.21;97331.53;4902239;29;20262;-31
2023/05/23 11:27:38;;;;;;;2.17;2.03;;;;;;;20.58;58.56;97330.75;4905225;29;20261;-31
2023/05/23 11:30:15;;;;;;;2.10;2.00;;;;;;;20.58;58.28;97333.31;4904871;29;20242;-32
2023/05/23 11:32:51;;;;;;;2.00;1.90;;;;;;;20.58;58.42;97335.84;4901414;29;20316;-31
2023/05/23 11:35:18;;;;;;;2.03;1.93;;;;;;;20.56;58.40;97329.81;4897259;29;20231;-31
2023/05/23 11:37:45;;;;;;;2.20;2.10;;;;;;;20.57;58.52;97323.03;4907272;29;20202;-31
2023/05/23 11:40:25;;;;;;;2.10;2.00;;;;;;;20.59;58.20;97323.94;4882084;29;20198;-31